sensor_id;sensor_type;location;lat;lon;timestamp;P1;durP1;ratioP1;P2;durP2;ratioP2
72286;SDS011;60221;45.696;16.076;2022-12-18T00:01:19;76.50;;;36.68;;
72286;SDS011;60221;45.696;16.076;2022-12-18T00:03:45;72.85;;;34.38;;
72286;SDS011;60221;45.696;16.076;2022-12-18T00:06:13;74.27;;;37.00;;
72286;SDS011;60221;45.696;16.076;2022-12-18T00:08:41;71.87;;;35.08;;
72286;SDS011;60221;45.696;16.076;2022-12-18T00:11:11;74.47;;;37.05;;
72286;SDS011;60221;45.696;16.076;2022-12-18T00:13:40;81.42;;;36.65;;
72286;SDS011;60221;45.696;16.076;2022-12-18T00:16:07;76.57;;;37.05;;
72286;SDS011;60221;45.696;16.076;2022-12-18T00:18:38;77.00;;;36.83;;
72286;SDS011;60221;45.696;16.076;2022-12-18T00:21:05;74.27;;;35.75;;
72286;SDS011;60221;45.696;16.076;2022-12-18T00:23:34;70.08;;;35.03;;
72286;SDS011;60221;45.696;16.076;2022-12-18T00:26:10;74.40;;;36.77;;
72286;SDS011;60221;45.696;16.076;2022-12-18T00:28:35;78.60;;;35.48;;
72286;SDS011;60221;45.696;16.076;2022-12-18T00:31:02;73.37;;;35.00;;
72286;SDS011;60221;45.696;16.076;2022-12-18T00:33:36;72.67;;;34.60;;
72286;SDS011;60221;45.696;16.076;2022-12-18T00:36:04;69.65;;;34.40;;
72286;SDS011;60221;45.696;16.076;2022-12-18T00:38:35;71.87;;;34.48;;
72286;SDS011;60221;45.696;16.076;2022-12-18T00:41:02;68.05;;;35.83;;
72286;SDS011;60221;45.696;16.076;2022-12-18T00:43:30;67.90;;;35.47;;
72286;SDS011;60221;45.696;16.076;2022-12-18T00:45:58;76.67;;;37.70;;
72286;SDS011;60221;45.696;16.076;2022-12-18T00:48:25;67.22;;;35.60;;
72286;SDS011;60221;45.696;16.076;2022-12-18T00:50:51;69.50;;;36.03;;
72286;SDS011;60221;45.696;16.076;2022-12-18T00:53:17;73.05;;;34.30;;
72286;SDS011;60221;45.696;16.076;2022-12-18T00:55:44;70.10;;;35.93;;
72286;SDS011;60221;45.696;16.076;2022-12-18T00:58:12;76.33;;;37.42;;
72286;SDS011;60221;45.696;16.076;2022-12-18T01:00:41;75.37;;;34.23;;
72286;SDS011;60221;45.696;16.076;2022-12-18T01:03:11;74.03;;;35.58;;
72286;SDS011;60221;45.696;16.076;2022-12-18T01:05:40;78.35;;;36.15;;
72286;SDS011;60221;45.696;16.076;2022-12-18T01:08:07;73.17;;;32.90;;
72286;SDS011;60221;45.696;16.076;2022-12-18T01:10:34;72.30;;;32.55;;
72286;SDS011;60221;45.696;16.076;2022-12-18T01:13:00;67.62;;;30.75;;
72286;SDS011;60221;45.696;16.076;2022-12-18T01:15:26;65.67;;;29.10;;
72286;SDS011;60221;45.696;16.076;2022-12-18T01:17:53;63.45;;;27.70;;
72286;SDS011;60221;45.696;16.076;2022-12-18T01:20:19;58.80;;;27.50;;
72286;SDS011;60221;45.696;16.076;2022-12-18T01:22:45;59.35;;;25.37;;
72286;SDS011;60221;45.696;16.076;2022-12-18T01:25:12;47.75;;;21.17;;
72286;SDS011;60221;45.696;16.076;2022-12-18T01:27:38;50.35;;;23.55;;
72286;SDS011;60221;45.696;16.076;2022-12-18T01:30:04;48.28;;;21.40;;
72286;SDS011;60221;45.696;16.076;2022-12-18T01:32:32;48.40;;;20.93;;
72286;SDS011;60221;45.696;16.076;2022-12-18T01:34:58;49.00;;;22.67;;
72286;SDS011;60221;45.696;16.076;2022-12-18T01:37:26;51.60;;;23.00;;
72286;SDS011;60221;45.696;16.076;2022-12-18T01:39:52;51.45;;;22.87;;
72286;SDS011;60221;45.696;16.076;2022-12-18T01:42:20;49.88;;;23.00;;
72286;SDS011;60221;45.696;16.076;2022-12-18T01:53:05;44.58;;;19.45;;
72286;SDS011;60221;45.696;16.076;2022-12-18T01:55:43;47.98;;;18.80;;
72286;SDS011;60221;45.696;16.076;2022-12-18T01:58:12;49.80;;;21.37;;
72286;SDS011;60221;45.696;16.076;2022-12-18T02:00:40;55.38;;;22.70;;
72286;SDS011;60221;45.696;16.076;2022-12-18T02:03:07;43.90;;;17.60;;
72286;SDS011;60221;45.696;16.076;2022-12-18T02:05:44;46.13;;;20.02;;
72286;SDS011;60221;45.696;16.076;2022-12-18T02:08:33;43.48;;;17.02;;
72286;SDS011;60221;45.696;16.076;2022-12-18T02:11:30;44.07;;;16.77;;
72286;SDS011;60221;45.696;16.076;2022-12-18T02:22:43;40.78;;;15.70;;
72286;SDS011;60221;45.696;16.076;2022-12-18T02:27:44;44.95;;;16.55;;
72286;SDS011;60221;45.696;16.076;2022-12-18T02:30:14;43.52;;;17.05;;
72286;SDS011;60221;45.696;16.076;2022-12-18T02:32:48;41.20;;;16.57;;
72286;SDS011;60221;45.696;16.076;2022-12-18T02:35:15;39.38;;;16.40;;
72286;SDS011;60221;45.696;16.076;2022-12-18T02:37:47;41.80;;;15.20;;
72286;SDS011;60221;45.696;16.076;2022-12-18T02:40:14;38.05;;;15.68;;
72286;SDS011;60221;45.696;16.076;2022-12-18T02:42:44;41.13;;;17.87;;
72286;SDS011;60221;45.696;16.076;2022-12-18T02:45:12;46.80;;;18.17;;
72286;SDS011;60221;45.696;16.076;2022-12-18T02:47:40;38.67;;;16.07;;
72286;SDS011;60221;45.696;16.076;2022-12-18T02:50:30;46.80;;;19.03;;
72286;SDS011;60221;45.696;16.076;2022-12-18T02:58:56;41.45;;;17.23;;
72286;SDS011;60221;45.696;16.076;2022-12-18T03:04:26;35.40;;;13.70;;
72286;SDS011;60221;45.696;16.076;2022-12-18T03:07:08;38.33;;;14.65;;
72286;SDS011;60221;45.696;16.076;2022-12-18T03:09:40;34.90;;;13.43;;
72286;SDS011;60221;45.696;16.076;2022-12-18T03:12:20;31.80;;;13.15;;
72286;SDS011;60221;45.696;16.076;2022-12-18T03:15:10;35.52;;;14.10;;
72286;SDS011;60221;45.696;16.076;2022-12-18T03:17:52;33.03;;;14.30;;
72286;SDS011;60221;45.696;16.076;2022-12-18T03:20:24;35.00;;;13.38;;
72286;SDS011;60221;45.696;16.076;2022-12-18T03:22:55;31.48;;;13.28;;
72286;SDS011;60221;45.696;16.076;2022-12-18T03:25:25;37.28;;;15.05;;
72286;SDS011;60221;45.696;16.076;2022-12-18T03:27:56;39.85;;;14.60;;
72286;SDS011;60221;45.696;16.076;2022-12-18T03:30:26;32.07;;;10.73;;
72286;SDS011;60221;45.696;16.076;2022-12-18T03:33:02;39.23;;;15.72;;
72286;SDS011;60221;45.696;16.076;2022-12-18T03:35:40;37.58;;;14.47;;
72286;SDS011;60221;45.696;16.076;2022-12-18T03:38:10;36.28;;;14.43;;
72286;SDS011;60221;45.696;16.076;2022-12-18T03:40:53;35.08;;;13.72;;
72286;SDS011;60221;45.696;16.076;2022-12-18T03:44:12;32.10;;;12.10;;
72286;SDS011;60221;45.696;16.076;2022-12-18T03:52:33;42.13;;;15.05;;
72286;SDS011;60221;45.696;16.076;2022-12-18T03:55:18;38.28;;;15.65;;
72286;SDS011;60221;45.696;16.076;2022-12-18T03:57:50;39.50;;;14.67;;
72286;SDS011;60221;45.696;16.076;2022-12-18T04:00:19;36.55;;;13.68;;
72286;SDS011;60221;45.696;16.076;2022-12-18T04:02:54;37.67;;;14.50;;
72286;SDS011;60221;45.696;16.076;2022-12-18T04:05:26;40.60;;;15.83;;
72286;SDS011;60221;45.696;16.076;2022-12-18T04:07:56;44.88;;;16.80;;
72286;SDS011;60221;45.696;16.076;2022-12-18T04:10:24;49.70;;;17.73;;
72286;SDS011;60221;45.696;16.076;2022-12-18T04:12:50;36.70;;;15.20;;
72286;SDS011;60221;45.696;16.076;2022-12-18T04:15:24;42.67;;;15.93;;
72286;SDS011;60221;45.696;16.076;2022-12-18T04:17:51;38.95;;;15.68;;
72286;SDS011;60221;45.696;16.076;2022-12-18T04:20:19;46.18;;;17.62;;
72286;SDS011;60221;45.696;16.076;2022-12-18T04:22:46;46.93;;;18.40;;
72286;SDS011;60221;45.696;16.076;2022-12-18T04:25:13;50.08;;;19.92;;
72286;SDS011;60221;45.696;16.076;2022-12-18T04:27:42;45.70;;;18.65;;
72286;SDS011;60221;45.696;16.076;2022-12-18T04:30:08;38.90;;;15.63;;
72286;SDS011;60221;45.696;16.076;2022-12-18T04:32:36;45.40;;;17.55;;
72286;SDS011;60221;45.696;16.076;2022-12-18T04:35:03;35.87;;;15.57;;
72286;SDS011;60221;45.696;16.076;2022-12-18T04:37:32;41.88;;;16.82;;
72286;SDS011;60221;45.696;16.076;2022-12-18T04:39:58;39.83;;;15.43;;
72286;SDS011;60221;45.696;16.076;2022-12-18T04:42:27;47.03;;;17.27;;
72286;SDS011;60221;45.696;16.076;2022-12-18T04:44:53;45.63;;;17.77;;
72286;SDS011;60221;45.696;16.076;2022-12-18T04:47:19;44.50;;;18.17;;
72286;SDS011;60221;45.696;16.076;2022-12-18T04:49:45;45.28;;;18.70;;
72286;SDS011;60221;45.696;16.076;2022-12-18T04:52:11;48.65;;;19.05;;
72286;SDS011;60221;45.696;16.076;2022-12-18T04:54:37;51.60;;;19.10;;
72286;SDS011;60221;45.696;16.076;2022-12-18T04:57:04;43.80;;;18.00;;
72286;SDS011;60221;45.696;16.076;2022-12-18T04:59:30;42.37;;;18.30;;
72286;SDS011;60221;45.696;16.076;2022-12-18T05:01:56;49.05;;;19.87;;
72286;SDS011;60221;45.696;16.076;2022-12-18T05:04:22;50.30;;;19.07;;
72286;SDS011;60221;45.696;16.076;2022-12-18T05:06:48;46.60;;;19.05;;
72286;SDS011;60221;45.696;16.076;2022-12-18T05:09:14;43.50;;;17.35;;
72286;SDS011;60221;45.696;16.076;2022-12-18T05:11:40;44.87;;;18.23;;
72286;SDS011;60221;45.696;16.076;2022-12-18T05:14:06;38.67;;;16.50;;
72286;SDS011;60221;45.696;16.076;2022-12-18T05:16:33;44.73;;;18.30;;
72286;SDS011;60221;45.696;16.076;2022-12-18T05:18:59;50.55;;;18.67;;
72286;SDS011;60221;45.696;16.076;2022-12-18T05:21:25;47.45;;;18.77;;
72286;SDS011;60221;45.696;16.076;2022-12-18T05:23:51;41.90;;;16.77;;
72286;SDS011;60221;45.696;16.076;2022-12-18T05:26:18;48.87;;;19.50;;
72286;SDS011;60221;45.696;16.076;2022-12-18T05:28:44;41.15;;;17.37;;
72286;SDS011;60221;45.696;16.076;2022-12-18T05:31:12;44.83;;;18.98;;
72286;SDS011;60221;45.696;16.076;2022-12-18T05:33:39;43.33;;;17.40;;
72286;SDS011;60221;45.696;16.076;2022-12-18T05:36:06;43.87;;;17.43;;
72286;SDS011;60221;45.696;16.076;2022-12-18T05:38:35;45.75;;;18.10;;
72286;SDS011;60221;45.696;16.076;2022-12-18T05:41:03;45.63;;;18.55;;
72286;SDS011;60221;45.696;16.076;2022-12-18T05:43:31;42.20;;;16.42;;
72286;SDS011;60221;45.696;16.076;2022-12-18T05:46:02;44.03;;;17.98;;
72286;SDS011;60221;45.696;16.076;2022-12-18T05:48:36;40.97;;;16.83;;
72286;SDS011;60221;45.696;16.076;2022-12-18T05:51:06;45.65;;;18.62;;
72286;SDS011;60221;45.696;16.076;2022-12-18T05:53:36;50.92;;;19.15;;
72286;SDS011;60221;45.696;16.076;2022-12-18T05:56:05;47.08;;;17.35;;
72286;SDS011;60221;45.696;16.076;2022-12-18T05:58:34;44.35;;;17.80;;
72286;SDS011;60221;45.696;16.076;2022-12-18T06:01:06;45.63;;;18.70;;
72286;SDS011;60221;45.696;16.076;2022-12-18T06:03:43;43.02;;;17.40;;
72286;SDS011;60221;45.696;16.076;2022-12-18T06:06:21;47.67;;;18.80;;
72286;SDS011;60221;45.696;16.076;2022-12-18T06:08:51;46.53;;;19.25;;
72286;SDS011;60221;45.696;16.076;2022-12-18T06:11:21;46.50;;;18.40;;
72286;SDS011;60221;45.696;16.076;2022-12-18T06:13:51;46.03;;;17.70;;
72286;SDS011;60221;45.696;16.076;2022-12-18T06:16:20;49.83;;;19.42;;
72286;SDS011;60221;45.696;16.076;2022-12-18T06:18:46;44.38;;;18.60;;
72286;SDS011;60221;45.696;16.076;2022-12-18T06:21:12;50.45;;;18.48;;
72286;SDS011;60221;45.696;16.076;2022-12-18T06:23:38;42.13;;;16.15;;
72286;SDS011;60221;45.696;16.076;2022-12-18T06:26:10;109.77;;;38.70;;
72286;SDS011;60221;45.696;16.076;2022-12-18T06:28:35;57.48;;;23.32;;
72286;SDS011;60221;45.696;16.076;2022-12-18T06:31:05;48.15;;;17.55;;
72286;SDS011;60221;45.696;16.076;2022-12-18T06:33:32;43.10;;;18.70;;
72286;SDS011;60221;45.696;16.076;2022-12-18T06:36:03;45.30;;;18.42;;
72286;SDS011;60221;45.696;16.076;2022-12-18T06:38:33;43.60;;;16.53;;
72286;SDS011;60221;45.696;16.076;2022-12-18T06:41:11;44.98;;;17.50;;
72286;SDS011;60221;45.696;16.076;2022-12-18T06:43:37;42.65;;;17.77;;
72286;SDS011;60221;45.696;16.076;2022-12-18T06:46:04;36.85;;;15.60;;
72286;SDS011;60221;45.696;16.076;2022-12-18T06:48:32;35.63;;;14.63;;
72286;SDS011;60221;45.696;16.076;2022-12-18T06:50:58;40.30;;;16.73;;
72286;SDS011;60221;45.696;16.076;2022-12-18T06:53:25;42.08;;;15.18;;
72286;SDS011;60221;45.696;16.076;2022-12-18T06:55:52;45.20;;;18.57;;
72286;SDS011;60221;45.696;16.076;2022-12-18T06:58:18;41.77;;;16.48;;
72286;SDS011;60221;45.696;16.076;2022-12-18T07:00:44;41.60;;;17.10;;
72286;SDS011;60221;45.696;16.076;2022-12-18T07:03:10;44.97;;;17.43;;
72286;SDS011;60221;45.696;16.076;2022-12-18T07:05:39;47.00;;;17.82;;
72286;SDS011;60221;45.696;16.076;2022-12-18T07:08:06;38.53;;;15.90;;
72286;SDS011;60221;45.696;16.076;2022-12-18T07:10:32;47.75;;;17.48;;
72286;SDS011;60221;45.696;16.076;2022-12-18T07:12:59;44.42;;;18.05;;
72286;SDS011;60221;45.696;16.076;2022-12-18T07:15:25;45.10;;;17.20;;
72286;SDS011;60221;45.696;16.076;2022-12-18T07:17:51;43.02;;;17.25;;
72286;SDS011;60221;45.696;16.076;2022-12-18T07:20:17;42.13;;;18.10;;
72286;SDS011;60221;45.696;16.076;2022-12-18T07:22:43;44.88;;;18.52;;
72286;SDS011;60221;45.696;16.076;2022-12-18T07:25:09;38.92;;;16.73;;
72286;SDS011;60221;45.696;16.076;2022-12-18T07:27:35;41.00;;;16.00;;
72286;SDS011;60221;45.696;16.076;2022-12-18T07:30:02;38.23;;;14.00;;
72286;SDS011;60221;45.696;16.076;2022-12-18T07:32:29;44.73;;;18.52;;
72286;SDS011;60221;45.696;16.076;2022-12-18T07:34:56;32.40;;;14.47;;
72286;SDS011;60221;45.696;16.076;2022-12-18T07:37:22;41.60;;;18.42;;
72286;SDS011;60221;45.696;16.076;2022-12-18T07:39:48;39.97;;;18.13;;
72286;SDS011;60221;45.696;16.076;2022-12-18T07:42:14;35.68;;;14.73;;
72286;SDS011;60221;45.696;16.076;2022-12-18T07:44:56;44.60;;;17.73;;
72286;SDS011;60221;45.696;16.076;2022-12-18T07:47:23;43.58;;;18.50;;
72286;SDS011;60221;45.696;16.076;2022-12-18T07:49:49;42.67;;;18.85;;
72286;SDS011;60221;45.696;16.076;2022-12-18T07:52:15;47.33;;;19.10;;
72286;SDS011;60221;45.696;16.076;2022-12-18T07:54:41;42.53;;;16.75;;
72286;SDS011;60221;45.696;16.076;2022-12-18T07:57:08;46.58;;;17.52;;
72286;SDS011;60221;45.696;16.076;2022-12-18T07:59:34;38.02;;;16.55;;
72286;SDS011;60221;45.696;16.076;2022-12-18T08:02:01;36.85;;;15.53;;
72286;SDS011;60221;45.696;16.076;2022-12-18T08:04:27;34.13;;;14.37;;
72286;SDS011;60221;45.696;16.076;2022-12-18T08:06:53;28.75;;;10.60;;
72286;SDS011;60221;45.696;16.076;2022-12-18T08:09:19;42.60;;;18.82;;
72286;SDS011;60221;45.696;16.076;2022-12-18T08:11:45;29.05;;;12.20;;
72286;SDS011;60221;45.696;16.076;2022-12-18T08:14:11;38.13;;;13.85;;
72286;SDS011;60221;45.696;16.076;2022-12-18T08:16:38;45.57;;;20.17;;
72286;SDS011;60221;45.696;16.076;2022-12-18T08:19:04;33.88;;;13.43;;
72286;SDS011;60221;45.696;16.076;2022-12-18T08:21:30;27.02;;;10.98;;
72286;SDS011;60221;45.696;16.076;2022-12-18T08:23:58;34.73;;;14.35;;
72286;SDS011;60221;45.696;16.076;2022-12-18T08:26:27;36.38;;;14.15;;
72286;SDS011;60221;45.696;16.076;2022-12-18T08:28:56;27.27;;;10.60;;
72286;SDS011;60221;45.696;16.076;2022-12-18T08:31:25;27.70;;;10.85;;
72286;SDS011;60221;45.696;16.076;2022-12-18T08:33:53;24.57;;;10.48;;
72286;SDS011;60221;45.696;16.076;2022-12-18T08:36:21;29.98;;;12.68;;
72286;SDS011;60221;45.696;16.076;2022-12-18T08:38:49;21.50;;;8.95;;
72286;SDS011;60221;45.696;16.076;2022-12-18T08:41:16;22.80;;;10.27;;
72286;SDS011;60221;45.696;16.076;2022-12-18T08:43:44;22.60;;;9.00;;
72286;SDS011;60221;45.696;16.076;2022-12-18T08:46:31;20.35;;;8.35;;
72286;SDS011;60221;45.696;16.076;2022-12-18T08:49:03;22.07;;;9.08;;
72286;SDS011;60221;45.696;16.076;2022-12-18T08:51:30;23.77;;;9.73;;
72286;SDS011;60221;45.696;16.076;2022-12-18T08:53:58;21.63;;;8.77;;
72286;SDS011;60221;45.696;16.076;2022-12-18T08:56:25;29.32;;;12.53;;
72286;SDS011;60221;45.696;16.076;2022-12-18T08:58:52;19.77;;;7.50;;
72286;SDS011;60221;45.696;16.076;2022-12-18T09:01:20;22.25;;;9.20;;
72286;SDS011;60221;45.696;16.076;2022-12-18T09:03:47;21.80;;;8.55;;
72286;SDS011;60221;45.696;16.076;2022-12-18T09:06:16;22.93;;;8.57;;
72286;SDS011;60221;45.696;16.076;2022-12-18T09:08:46;31.37;;;13.65;;
72286;SDS011;60221;45.696;16.076;2022-12-18T09:11:13;69.47;;;39.35;;
72286;SDS011;60221;45.696;16.076;2022-12-18T09:13:47;24.15;;;11.28;;
72286;SDS011;60221;45.696;16.076;2022-12-18T09:16:13;56.75;;;26.90;;
72286;SDS011;60221;45.696;16.076;2022-12-18T09:18:39;23.30;;;9.40;;
72286;SDS011;60221;45.696;16.076;2022-12-18T09:21:09;31.12;;;13.48;;
72286;SDS011;60221;45.696;16.076;2022-12-18T09:23:38;26.60;;;11.12;;
72286;SDS011;60221;45.696;16.076;2022-12-18T09:26:05;23.00;;;10.03;;
72286;SDS011;60221;45.696;16.076;2022-12-18T09:28:32;18.67;;;8.25;;
72286;SDS011;60221;45.696;16.076;2022-12-18T09:31:03;17.57;;;7.80;;
72286;SDS011;60221;45.696;16.076;2022-12-18T09:33:34;18.07;;;7.45;;
72286;SDS011;60221;45.696;16.076;2022-12-18T09:36:05;23.00;;;8.23;;
72286;SDS011;60221;45.696;16.076;2022-12-18T09:38:35;19.82;;;8.10;;
72286;SDS011;60221;45.696;16.076;2022-12-18T09:41:27;22.25;;;9.30;;
72286;SDS011;60221;45.696;16.076;2022-12-18T09:43:50;24.57;;;9.23;;
72286;SDS011;60221;45.696;16.076;2022-12-18T09:46:26;20.35;;;8.00;;
72286;SDS011;60221;45.696;16.076;2022-12-18T09:48:57;19.60;;;8.00;;
72286;SDS011;60221;45.696;16.076;2022-12-18T09:51:33;23.50;;;8.28;;
72286;SDS011;60221;45.696;16.076;2022-12-18T09:54:06;21.48;;;8.50;;
72286;SDS011;60221;45.696;16.076;2022-12-18T09:56:40;21.83;;;9.07;;
72286;SDS011;60221;45.696;16.076;2022-12-18T09:59:22;25.17;;;10.38;;
72286;SDS011;60221;45.696;16.076;2022-12-18T10:01:52;29.63;;;14.20;;
72286;SDS011;60221;45.696;16.076;2022-12-18T10:04:18;29.90;;;12.15;;
72286;SDS011;60221;45.696;16.076;2022-12-18T10:07:06;23.22;;;9.58;;
72286;SDS011;60221;45.696;16.076;2022-12-18T10:09:51;25.67;;;11.47;;
72286;SDS011;60221;45.696;16.076;2022-12-18T10:12:47;23.77;;;10.98;;
72286;SDS011;60221;45.696;16.076;2022-12-18T10:21:02;18.15;;;7.25;;
72286;SDS011;60221;45.696;16.076;2022-12-18T10:26:31;27.20;;;11.20;;
72286;SDS011;60221;45.696;16.076;2022-12-18T10:28:58;25.75;;;12.33;;
72286;SDS011;60221;45.696;16.076;2022-12-18T10:31:25;26.15;;;10.48;;
72286;SDS011;60221;45.696;16.076;2022-12-18T10:33:53;23.00;;;8.08;;
72286;SDS011;60221;45.696;16.076;2022-12-18T10:36:20;22.37;;;9.20;;
72286;SDS011;60221;45.696;16.076;2022-12-18T10:38:49;26.17;;;10.43;;
72286;SDS011;60221;45.696;16.076;2022-12-18T10:46:51;21.93;;;9.73;;
72286;SDS011;60221;45.696;16.076;2022-12-18T10:49:23;20.83;;;7.90;;
72286;SDS011;60221;45.696;16.076;2022-12-18T10:54:48;18.30;;;7.20;;
72286;SDS011;60221;45.696;16.076;2022-12-18T11:00:26;25.92;;;9.65;;
72286;SDS011;60221;45.696;16.076;2022-12-18T11:02:56;22.97;;;10.40;;
72286;SDS011;60221;45.696;16.076;2022-12-18T11:05:27;22.55;;;9.05;;
72286;SDS011;60221;45.696;16.076;2022-12-18T11:08:02;21.93;;;8.28;;
72286;SDS011;60221;45.696;16.076;2022-12-18T11:10:36;22.17;;;8.83;;
72286;SDS011;60221;45.696;16.076;2022-12-18T11:13:15;17.45;;;6.03;;
72286;SDS011;60221;45.696;16.076;2022-12-18T11:15:47;19.47;;;7.93;;
72286;SDS011;60221;45.696;16.076;2022-12-18T11:18:22;18.73;;;8.48;;
72286;SDS011;60221;45.696;16.076;2022-12-18T11:20:53;17.98;;;6.60;;
72286;SDS011;60221;45.696;16.076;2022-12-18T11:23:24;17.20;;;6.55;;
72286;SDS011;60221;45.696;16.076;2022-12-18T11:25:53;23.98;;;13.25;;
72286;SDS011;60221;45.696;16.076;2022-12-18T11:28:28;22.10;;;7.90;;
72286;SDS011;60221;45.696;16.076;2022-12-18T11:31:18;18.25;;;7.53;;
72286;SDS011;60221;45.696;16.076;2022-12-18T11:33:56;19.17;;;7.20;;
72286;SDS011;60221;45.696;16.076;2022-12-18T11:36:29;19.40;;;7.53;;
72286;SDS011;60221;45.696;16.076;2022-12-18T11:39:02;17.25;;;7.40;;
72286;SDS011;60221;45.696;16.076;2022-12-18T11:41:32;17.60;;;6.23;;
72286;SDS011;60221;45.696;16.076;2022-12-18T11:44:29;21.87;;;9.18;;
72286;SDS011;60221;45.696;16.076;2022-12-18T11:50:28;20.43;;;8.43;;
72286;SDS011;60221;45.696;16.076;2022-12-18T11:53:03;18.95;;;8.43;;
72286;SDS011;60221;45.696;16.076;2022-12-18T12:18:23;16.50;;;6.33;;
72286;SDS011;60221;45.696;16.076;2022-12-18T12:21:13;22.22;;;8.68;;
72286;SDS011;60221;45.696;16.076;2022-12-18T12:24:09;14.67;;;5.47;;
72286;SDS011;60221;45.696;16.076;2022-12-18T12:35:57;21.93;;;9.33;;
72286;SDS011;60221;45.696;16.076;2022-12-18T12:38:58;21.10;;;8.93;;
72286;SDS011;60221;45.696;16.076;2022-12-18T12:41:30;17.55;;;6.37;;
72286;SDS011;60221;45.696;16.076;2022-12-18T12:44:19;27.50;;;12.88;;
72286;SDS011;60221;45.696;16.076;2022-12-18T12:46:52;19.77;;;9.48;;
72286;SDS011;60221;45.696;16.076;2022-12-18T12:49:30;32.40;;;16.60;;
72286;SDS011;60221;45.696;16.076;2022-12-18T12:52:06;26.90;;;12.90;;
72286;SDS011;60221;45.696;16.076;2022-12-18T12:54:45;20.90;;;8.33;;
72286;SDS011;60221;45.696;16.076;2022-12-18T13:00:09;17.48;;;7.05;;
72286;SDS011;60221;45.696;16.076;2022-12-18T13:05:57;16.33;;;6.33;;
72286;SDS011;60221;45.696;16.076;2022-12-18T13:08:30;22.52;;;8.70;;
72286;SDS011;60221;45.696;16.076;2022-12-18T13:11:00;22.05;;;9.70;;
72286;SDS011;60221;45.696;16.076;2022-12-18T13:13:51;21.62;;;9.15;;
72286;SDS011;60221;45.696;16.076;2022-12-18T13:16:24;17.82;;;7.22;;
72286;SDS011;60221;45.696;16.076;2022-12-18T13:18:53;18.93;;;7.80;;
72286;SDS011;60221;45.696;16.076;2022-12-18T13:21:27;19.62;;;8.53;;
72286;SDS011;60221;45.696;16.076;2022-12-18T13:24:14;20.85;;;7.72;;
72286;SDS011;60221;45.696;16.076;2022-12-18T13:26:48;19.98;;;7.95;;
72286;SDS011;60221;45.696;16.076;2022-12-18T13:29:39;21.40;;;9.55;;
72286;SDS011;60221;45.696;16.076;2022-12-18T13:32:21;67.10;;;33.30;;
72286;SDS011;60221;45.696;16.076;2022-12-18T13:37:51;21.70;;;10.63;;
72286;SDS011;60221;45.696;16.076;2022-12-18T13:49:18;20.95;;;9.88;;
72286;SDS011;60221;45.696;16.076;2022-12-18T13:51:46;23.20;;;10.45;;
72286;SDS011;60221;45.696;16.076;2022-12-18T13:54:35;22.90;;;9.83;;
72286;SDS011;60221;45.696;16.076;2022-12-18T13:57:25;17.67;;;6.95;;
72286;SDS011;60221;45.696;16.076;2022-12-18T13:59:57;20.00;;;7.73;;
72286;SDS011;60221;45.696;16.076;2022-12-18T14:02:28;25.23;;;10.95;;
72286;SDS011;60221;45.696;16.076;2022-12-18T14:04:54;21.20;;;9.50;;
72286;SDS011;60221;45.696;16.076;2022-12-18T14:07:26;25.52;;;9.90;;
72286;SDS011;60221;45.696;16.076;2022-12-18T14:09:52;22.50;;;9.13;;
72286;SDS011;60221;45.696;16.076;2022-12-18T14:12:27;25.50;;;10.77;;
72286;SDS011;60221;45.696;16.076;2022-12-18T14:15:31;24.43;;;10.88;;
72286;SDS011;60221;45.696;16.076;2022-12-18T14:18:02;27.20;;;11.88;;
72286;SDS011;60221;45.696;16.076;2022-12-18T14:20:35;41.13;;;20.52;;
72286;SDS011;60221;45.696;16.076;2022-12-18T14:23:24;24.25;;;11.63;;
72286;SDS011;60221;45.696;16.076;2022-12-18T14:25:57;26.60;;;10.33;;
72286;SDS011;60221;45.696;16.076;2022-12-18T14:28:25;29.67;;;11.35;;
72286;SDS011;60221;45.696;16.076;2022-12-18T14:30:52;27.13;;;11.75;;
72286;SDS011;60221;45.696;16.076;2022-12-18T14:33:25;25.05;;;10.95;;
72286;SDS011;60221;45.696;16.076;2022-12-18T14:41:11;31.12;;;12.60;;
72286;SDS011;60221;45.696;16.076;2022-12-18T14:43:39;27.80;;;12.53;;
72286;SDS011;60221;45.696;16.076;2022-12-18T14:49:03;27.15;;;12.85;;
72286;SDS011;60221;45.696;16.076;2022-12-18T14:51:49;25.13;;;11.17;;
72286;SDS011;60221;45.696;16.076;2022-12-18T14:54:19;29.82;;;12.73;;
72286;SDS011;60221;45.696;16.076;2022-12-18T14:56:53;28.23;;;13.00;;
72286;SDS011;60221;45.696;16.076;2022-12-18T14:59:24;26.12;;;10.75;;
72286;SDS011;60221;45.696;16.076;2022-12-18T15:07:41;30.10;;;12.85;;
72286;SDS011;60221;45.696;16.076;2022-12-18T15:10:13;32.83;;;14.18;;
72286;SDS011;60221;45.696;16.076;2022-12-18T15:13:05;31.12;;;12.47;;
72286;SDS011;60221;45.696;16.076;2022-12-18T15:18:13;32.30;;;13.33;;
72286;SDS011;60221;45.696;16.076;2022-12-18T15:26:19;27.87;;;13.53;;
72286;SDS011;60221;45.696;16.076;2022-12-18T15:28:56;27.87;;;12.28;;
72286;SDS011;60221;45.696;16.076;2022-12-18T15:34:08;33.50;;;15.35;;
72286;SDS011;60221;45.696;16.076;2022-12-18T15:36:39;30.85;;;13.90;;
72286;SDS011;60221;45.696;16.076;2022-12-18T15:39:09;32.55;;;14.18;;
72286;SDS011;60221;45.696;16.076;2022-12-18T15:41:39;34.10;;;14.03;;
72286;SDS011;60221;45.696;16.076;2022-12-18T15:44:22;30.77;;;13.90;;
72286;SDS011;60221;45.696;16.076;2022-12-18T15:46:51;26.40;;;12.50;;
72286;SDS011;60221;45.696;16.076;2022-12-18T15:49:20;34.13;;;14.13;;
72286;SDS011;60221;45.696;16.076;2022-12-18T15:51:51;29.40;;;13.38;;
72286;SDS011;60221;45.696;16.076;2022-12-18T15:54:22;31.05;;;14.95;;
72286;SDS011;60221;45.696;16.076;2022-12-18T15:57:12;31.23;;;13.23;;
72286;SDS011;60221;45.696;16.076;2022-12-18T15:59:55;32.13;;;13.90;;
72286;SDS011;60221;45.696;16.076;2022-12-18T16:02:25;29.10;;;13.43;;
72286;SDS011;60221;45.696;16.076;2022-12-18T16:04:54;29.98;;;14.20;;
72286;SDS011;60221;45.696;16.076;2022-12-18T16:07:23;28.92;;;12.60;;
72286;SDS011;60221;45.696;16.076;2022-12-18T16:09:51;29.13;;;12.57;;
72286;SDS011;60221;45.696;16.076;2022-12-18T16:12:20;28.92;;;12.50;;
72286;SDS011;60221;45.696;16.076;2022-12-18T16:14:51;30.40;;;12.58;;
72286;SDS011;60221;45.696;16.076;2022-12-18T16:17:19;31.75;;;13.25;;
72286;SDS011;60221;45.696;16.076;2022-12-18T16:19:47;32.33;;;13.88;;
72286;SDS011;60221;45.696;16.076;2022-12-18T16:22:19;32.13;;;13.20;;
72286;SDS011;60221;45.696;16.076;2022-12-18T16:24:50;33.38;;;13.25;;
72286;SDS011;60221;45.696;16.076;2022-12-18T16:27:20;31.52;;;13.98;;
72286;SDS011;60221;45.696;16.076;2022-12-18T16:29:50;28.55;;;12.20;;
72286;SDS011;60221;45.696;16.076;2022-12-18T16:32:19;27.22;;;12.20;;
72286;SDS011;60221;45.696;16.076;2022-12-18T16:34:49;24.77;;;10.63;;
72286;SDS011;60221;45.696;16.076;2022-12-18T16:37:18;27.13;;;10.55;;
72286;SDS011;60221;45.696;16.076;2022-12-18T16:39:50;28.83;;;11.70;;
72286;SDS011;60221;45.696;16.076;2022-12-18T16:42:19;25.95;;;10.85;;
72286;SDS011;60221;45.696;16.076;2022-12-18T16:44:47;22.35;;;9.23;;
72286;SDS011;60221;45.696;16.076;2022-12-18T16:47:16;25.80;;;11.33;;